sensor_id;sensor_type;location;lat;lon;timestamp;P1;P2;P0
74880;PMS5003;63427;49.654;6.596;2023-11-19T00:01:28;0;0;
74880;PMS5003;63427;49.654;6.596;2023-11-19T00:03:53;0;0;
74880;PMS5003;63427;49.654;6.596;2023-11-19T00:06:18;0;0;
74880;PMS5003;63427;49.654;6.596;2023-11-19T00:08:45;0;0;
74880;PMS5003;63427;49.654;6.596;2023-11-19T00:11:09;0;0;
74880;PMS5003;63427;49.654;6.596;2023-11-19T00:13:35;0;0;
74880;PMS5003;63427;49.654;6.596;2023-11-19T00:16:00;0;0;
74880;PMS5003;63427;49.654;6.596;2023-11-19T00:18:26;0;0;
74880;PMS5003;63427;49.654;6.596;2023-11-19T00:20:51;0;0;
74880;PMS5003;63427;49.654;6.596;2023-11-19T00:23:16;0;0;
74880;PMS5003;63427;49.654;6.596;2023-11-19T00:25:42;0;0;
74880;PMS5003;63427;49.654;6.596;2023-11-19T00:28:07;0;0;
74880;PMS5003;63427;49.654;6.596;2023-11-19T00:30:33;0;0;
74880;PMS5003;63427;49.654;6.596;2023-11-19T00:32:58;0;0;
74880;PMS5003;63427;49.654;6.596;2023-11-19T00:37:49;0;0;
74880;PMS5003;63427;49.654;6.596;2023-11-19T00:40:15;0;0;
74880;PMS5003;63427;49.654;6.596;2023-11-19T00:45:06;0;0;
74880;PMS5003;63427;49.654;6.596;2023-11-19T00:47:36;0;0;
74880;PMS5003;63427;49.654;6.596;2023-11-19T00:49:56;0;0;
74880;PMS5003;63427;49.654;6.596;2023-11-19T00:52:22;0;0;
74880;PMS5003;63427;49.654;6.596;2023-11-19T00:54:47;0;0;
74880;PMS5003;63427;49.654;6.596;2023-11-19T00:57:13;0;0;
74880;PMS5003;63427;49.654;6.596;2023-11-19T00:59:43;0;0;
74880;PMS5003;63427;49.654;6.596;2023-11-19T01:02:04;0;0;
74880;PMS5003;63427;49.654;6.596;2023-11-19T01:06:55;0;0;
74880;PMS5003;63427;49.654;6.596;2023-11-19T01:09:20;0;0;
74880;PMS5003;63427;49.654;6.596;2023-11-19T01:11:45;0;0;
74880;PMS5003;63427;49.654;6.596;2023-11-19T01:14:11;0;0;
74880;PMS5003;63427;49.654;6.596;2023-11-19T01:16:36;0;0;
74880;PMS5003;63427;49.654;6.596;2023-11-19T01:19:01;0;0;
74880;PMS5003;63427;49.654;6.596;2023-11-19T01:21:27;0;0;
74880;PMS5003;63427;49.654;6.596;2023-11-19T01:23:52;0;0;
74880;PMS5003;63427;49.654;6.596;2023-11-19T01:26:18;0;0;
74880;PMS5003;63427;49.654;6.596;2023-11-19T01:28:43;0;0;
74880;PMS5003;63427;49.654;6.596;2023-11-19T01:31:09;0;0;
74880;PMS5003;63427;49.654;6.596;2023-11-19T01:33:35;0;0;
74880;PMS5003;63427;49.654;6.596;2023-11-19T01:35:59;0;0;
74880;PMS5003;63427;49.654;6.596;2023-11-19T01:38:25;0;0;
74880;PMS5003;63427;49.654;6.596;2023-11-19T01:40:50;2;1;
74880;PMS5003;63427;49.654;6.596;2023-11-19T01:45:41;0;0;
74880;PMS5003;63427;49.654;6.596;2023-11-19T01:48:07;0;0;
74880;PMS5003;63427;49.654;6.596;2023-11-19T01:50:32;0;0;
74880;PMS5003;63427;49.654;6.596;2023-11-19T01:52:58;0;0;
74880;PMS5003;63427;49.654;6.596;2023-11-19T01:55:23;1;1;
74880;PMS5003;63427;49.654;6.596;2023-11-19T01:57:48;0;0;
74880;PMS5003;63427;49.654;6.596;2023-11-19T02:00:21;1;0;
74880;PMS5003;63427;49.654;6.596;2023-11-19T02:02:39;0;0;
74880;PMS5003;63427;49.654;6.596;2023-11-19T02:05:05;1;1;
74880;PMS5003;63427;49.654;6.596;2023-11-19T02:07:30;0;0;
74880;PMS5003;63427;49.654;6.596;2023-11-19T02:09:55;0;0;
74880;PMS5003;63427;49.654;6.596;2023-11-19T02:12:26;1;1;
74880;PMS5003;63427;49.654;6.596;2023-11-19T02:14:46;0;0;
74880;PMS5003;63427;49.654;6.596;2023-11-19T02:19:37;0;0;
74880;PMS5003;63427;49.654;6.596;2023-11-19T02:22:03;1;1;
74880;PMS5003;63427;49.654;6.596;2023-11-19T02:26:56;1;1;
74880;PMS5003;63427;49.654;6.596;2023-11-19T02:29:19;1;1;
74880;PMS5003;63427;49.654;6.596;2023-11-19T02:31:44;1;1;
74880;PMS5003;63427;49.654;6.596;2023-11-19T02:34:10;1;1;
74880;PMS5003;63427;49.654;6.596;2023-11-19T02:36:35;2;2;
74880;PMS5003;63427;49.654;6.596;2023-11-19T02:39:01;2;2;
74880;PMS5003;63427;49.654;6.596;2023-11-19T02:41:26;2;2;
74880;PMS5003;63427;49.654;6.596;2023-11-19T02:43:51;2;1;
74880;PMS5003;63427;49.654;6.596;2023-11-19T02:46:17;2;2;
74880;PMS5003;63427;49.654;6.596;2023-11-19T02:48:42;3;3;
74880;PMS5003;63427;49.654;6.596;2023-11-19T02:51:08;3;3;
74880;PMS5003;63427;49.654;6.596;2023-11-19T02:53:33;3;3;
74880;PMS5003;63427;49.654;6.596;2023-11-19T02:55:59;4;4;
74880;PMS5003;63427;49.654;6.596;2023-11-19T02:58:24;4;4;
74880;PMS5003;63427;49.654;6.596;2023-11-19T03:00:49;3;3;
74880;PMS5003;63427;49.654;6.596;2023-11-19T03:03:15;3;3;
74880;PMS5003;63427;49.654;6.596;2023-11-19T03:42:02;3;3;
74880;PMS5003;63427;49.654;6.596;2023-11-19T03:44:27;3;3;
74880;PMS5003;63427;49.654;6.596;2023-11-19T03:46:52;4;4;
74880;PMS5003;63427;49.654;6.596;2023-11-19T03:51:43;3;3;
74880;PMS5003;63427;49.654;6.596;2023-11-19T05:07:00;2;2;
74880;PMS5003;63427;49.654;6.596;2023-11-19T05:09:15;4;4;
74880;PMS5003;63427;49.654;6.596;2023-11-19T05:11:40;2;2;
74880;PMS5003;63427;49.654;6.596;2023-11-19T05:14:14;3;3;
74880;PMS5003;63427;49.654;6.596;2023-11-19T05:16:31;4;4;
74880;PMS5003;63427;49.654;6.596;2023-11-19T05:18:57;2;2;
74880;PMS5003;63427;49.654;6.596;2023-11-19T05:21:22;3;3;
74880;PMS5003;63427;49.654;6.596;2023-11-19T05:23:47;4;4;
74880;PMS5003;63427;49.654;6.596;2023-11-19T05:31:04;4;3;
74880;PMS5003;63427;49.654;6.596;2023-11-19T05:33:29;2;2;
74880;PMS5003;63427;49.654;6.596;2023-11-19T05:35:55;3;3;
74880;PMS5003;63427;49.654;6.596;2023-11-19T05:40:45;2;2;
74880;PMS5003;63427;49.654;6.596;2023-11-19T05:43:10;1;1;
74880;PMS5003;63427;49.654;6.596;2023-11-19T05:48:01;2;1;
74880;PMS5003;63427;49.654;6.596;2023-11-19T05:50:26;3;3;
74880;PMS5003;63427;49.654;6.596;2023-11-19T05:52:52;3;3;
74880;PMS5003;63427;49.654;6.596;2023-11-19T05:55:17;3;3;
74880;PMS5003;63427;49.654;6.596;2023-11-19T05:57:52;3;3;
74880;PMS5003;63427;49.654;6.596;2023-11-19T06:00:08;3;3;
74880;PMS5003;63427;49.654;6.596;2023-11-19T06:02:34;3;3;
74880;PMS5003;63427;49.654;6.596;2023-11-19T06:04:59;0;0;
74880;PMS5003;63427;49.654;6.596;2023-11-19T06:07:24;3;2;
74880;PMS5003;63427;49.654;6.596;2023-11-19T06:09:49;2;2;
74880;PMS5003;63427;49.654;6.596;2023-11-19T06:12:15;3;2;
74880;PMS5003;63427;49.654;6.596;2023-11-19T06:14:40;3;3;
74880;PMS5003;63427;49.654;6.596;2023-11-19T06:17:05;2;2;
74880;PMS5003;63427;49.654;6.596;2023-11-19T06:19:31;2;2;
74880;PMS5003;63427;49.654;6.596;2023-11-19T06:21:56;3;2;
74880;PMS5003;63427;49.654;6.596;2023-11-19T06:24:22;3;3;
74880;PMS5003;63427;49.654;6.596;2023-11-19T06:26:47;2;2;
74880;PMS5003;63427;49.654;6.596;2023-11-19T06:29:12;3;3;
74880;PMS5003;63427;49.654;6.596;2023-11-19T06:31:42;3;3;
74880;PMS5003;63427;49.654;6.596;2023-11-19T06:34:03;3;3;
74880;PMS5003;63427;49.654;6.596;2023-11-19T06:36:28;2;2;
74880;PMS5003;63427;49.654;6.596;2023-11-19T06:38:54;3;3;
74880;PMS5003;63427;49.654;6.596;2023-11-19T06:41:19;1;1;
74880;PMS5003;63427;49.654;6.596;2023-11-19T06:43:44;4;3;
74880;PMS5003;63427;49.654;6.596;2023-11-19T07:12:49;3;3;
74880;PMS5003;63427;49.654;6.596;2023-11-19T07:22:30;3;3;
74880;PMS5003;63427;49.654;6.596;2023-11-19T07:25:01;3;3;
74880;PMS5003;63427;49.654;6.596;2023-11-19T07:27:21;2;2;
74880;PMS5003;63427;49.654;6.596;2023-11-19T07:29:46;3;2;
74880;PMS5003;63427;49.654;6.596;2023-11-19T07:32:12;3;3;
74880;PMS5003;63427;49.654;6.596;2023-11-19T07:34:37;4;3;
74880;PMS5003;63427;49.654;6.596;2023-11-19T07:37:02;3;3;
74880;PMS5003;63427;49.654;6.596;2023-11-19T07:39:28;3;3;
74880;PMS5003;63427;49.654;6.596;2023-11-19T07:41:53;3;2;
74880;PMS5003;63427;49.654;6.596;2023-11-19T07:44:27;3;3;
74880;PMS5003;63427;49.654;6.596;2023-11-19T07:46:44;2;2;
74880;PMS5003;63427;49.654;6.596;2023-11-19T07:49:09;2;2;
74880;PMS5003;63427;49.654;6.596;2023-11-19T07:51:35;5;4;
74880;PMS5003;63427;49.654;6.596;2023-11-19T07:54:00;3;3;
74880;PMS5003;63427;49.654;6.596;2023-11-19T07:56:25;2;2;
74880;PMS5003;63427;49.654;6.596;2023-11-19T07:58:50;2;2;
74880;PMS5003;63427;49.654;6.596;2023-11-19T08:01:15;3;3;
74880;PMS5003;63427;49.654;6.596;2023-11-19T08:03:41;1;0;
74880;PMS5003;63427;49.654;6.596;2023-11-19T08:06:06;4;2;
74880;PMS5003;63427;49.654;6.596;2023-11-19T08:08:31;2;2;
74880;PMS5003;63427;49.654;6.596;2023-11-19T08:10:57;2;2;
74880;PMS5003;63427;49.654;6.596;2023-11-19T08:13:23;3;3;
74880;PMS5003;63427;49.654;6.596;2023-11-19T08:15:48;4;4;
74880;PMS5003;63427;49.654;6.596;2023-11-19T08:18:13;2;2;
74880;PMS5003;63427;49.654;6.596;2023-11-19T09:23:38;3;3;
74880;PMS5003;63427;49.654;6.596;2023-11-19T09:26:04;3;3;
74880;PMS5003;63427;49.654;6.596;2023-11-19T09:43:01;3;2;
74880;PMS5003;63427;49.654;6.596;2023-11-19T09:45:27;2;2;
74880;PMS5003;63427;49.654;6.596;2023-11-19T09:47:51;1;1;
74880;PMS5003;63427;49.654;6.596;2023-11-19T09:59:59;1;1;
74880;PMS5003;63427;49.654;6.596;2023-11-19T10:02:24;2;1;
74880;PMS5003;63427;49.654;6.596;2023-11-19T10:04:49;2;2;
74880;PMS5003;63427;49.654;6.596;2023-11-19T10:09:40;4;3;
74880;PMS5003;63427;49.654;6.596;2023-11-19T10:12:06;1;1;
74880;PMS5003;63427;49.654;6.596;2023-11-19T10:14:31;2;1;
74880;PMS5003;63427;49.654;6.596;2023-11-19T10:16:56;1;0;
74880;PMS5003;63427;49.654;6.596;2023-11-19T10:19:22;4;3;
74880;PMS5003;63427;49.654;6.596;2023-11-19T10:21:47;5;4;
74880;PMS5003;63427;49.654;6.596;2023-11-19T10:24:12;2;1;
74880;PMS5003;63427;49.654;6.596;2023-11-19T10:26:37;2;1;
74880;PMS5003;63427;49.654;6.596;2023-11-19T10:29:02;3;2;
74880;PMS5003;63427;49.654;6.596;2023-11-19T10:33:53;1;1;
74880;PMS5003;63427;49.654;6.596;2023-11-19T10:36:18;2;2;
74880;PMS5003;63427;49.654;6.596;2023-11-19T10:41:09;1;1;
74880;PMS5003;63427;49.654;6.596;2023-11-19T10:48:24;4;2;
74880;PMS5003;63427;49.654;6.596;2023-11-19T10:50:53;2;2;
74880;PMS5003;63427;49.654;6.596;2023-11-19T10:53:14;1;1;
74880;PMS5003;63427;49.654;6.596;2023-11-19T10:55:39;0;0;
74880;PMS5003;63427;49.654;6.596;2023-11-19T10:58:06;1;1;
74880;PMS5003;63427;49.654;6.596;2023-11-19T11:00:30;3;2;
74880;PMS5003;63427;49.654;6.596;2023-11-19T11:02:56;3;2;
74880;PMS5003;63427;49.654;6.596;2023-11-19T11:07:46;3;3;
74880;PMS5003;63427;49.654;6.596;2023-11-19T11:10:16;2;2;
74880;PMS5003;63427;49.654;6.596;2023-11-19T11:12:36;5;4;
74880;PMS5003;63427;49.654;6.596;2023-11-19T11:15:02;2;2;
74880;PMS5003;63427;49.654;6.596;2023-11-19T11:17:27;2;2;
74880;PMS5003;63427;49.654;6.596;2023-11-19T11:19:52;2;2;
74880;PMS5003;63427;49.654;6.596;2023-11-19T11:22:17;3;2;
74880;PMS5003;63427;49.654;6.596;2023-11-19T11:29:37;2;1;
74880;PMS5003;63427;49.654;6.596;2023-11-19T11:32:12;2;2;
74880;PMS5003;63427;49.654;6.596;2023-11-19T11:36:50;0;0;
74880;PMS5003;63427;49.654;6.596;2023-11-19T11:39:14;2;2;
74880;PMS5003;63427;49.654;6.596;2023-11-19T11:41:39;3;2;
74880;PMS5003;63427;49.654;6.596;2023-11-19T11:44:04;5;3;
74880;PMS5003;63427;49.654;6.596;2023-11-19T11:48:55;2;2;
74880;PMS5003;63427;49.654;6.596;2023-11-19T11:51:21;2;2;
74880;PMS5003;63427;49.654;6.596;2023-11-19T11:56:10;1;1;
74880;PMS5003;63427;49.654;6.596;2023-11-19T11:58:35;2;2;
74880;PMS5003;63427;49.654;6.596;2023-11-19T12:01:01;1;1;
74880;PMS5003;63427;49.654;6.596;2023-11-19T12:03:27;3;2;
74880;PMS5003;63427;49.654;6.596;2023-11-19T12:05:51;7;6;
74880;PMS5003;63427;49.654;6.596;2023-11-19T12:10:45;2;2;
74880;PMS5003;63427;49.654;6.596;2023-11-19T12:13:07;2;1;
74880;PMS5003;63427;49.654;6.596;2023-11-19T12:15:32;3;3;
74880;PMS5003;63427;49.654;6.596;2023-11-19T12:17:57;2;2;
74880;PMS5003;63427;49.654;6.596;2023-11-19T12:22:48;2;1;
74880;PMS5003;63427;49.654;6.596;2023-11-19T12:25:13;2;2;
74880;PMS5003;63427;49.654;6.596;2023-11-19T12:34:53;2;1;
74880;PMS5003;63427;49.654;6.596;2023-11-19T12:37:19;3;2;
74880;PMS5003;63427;49.654;6.596;2023-11-19T12:39:44;2;1;
74880;PMS5003;63427;49.654;6.596;2023-11-19T12:42:09;2;1;
74880;PMS5003;63427;49.654;6.596;2023-11-19T12:47:01;2;1;
74880;PMS5003;63427;49.654;6.596;2023-11-19T12:49:25;4;3;
74880;PMS5003;63427;49.654;6.596;2023-11-19T12:51:50;2;2;
74880;PMS5003;63427;49.654;6.596;2023-11-19T12:54:15;4;4;
74880;PMS5003;63427;49.654;6.596;2023-11-19T12:59:11;2;2;
74880;PMS5003;63427;49.654;6.596;2023-11-19T13:01:31;1;1;
74880;PMS5003;63427;49.654;6.596;2023-11-19T13:03:56;2;2;
74880;PMS5003;63427;49.654;6.596;2023-11-19T13:06:21;1;1;
74880;PMS5003;63427;49.654;6.596;2023-11-19T13:08:47;2;2;
74880;PMS5003;63427;49.654;6.596;2023-11-19T13:11:11;2;2;
74880;PMS5003;63427;49.654;6.596;2023-11-19T13:13:53;2;2;
74880;PMS5003;63427;49.654;6.596;2023-11-19T13:16:02;3;2;
74880;PMS5003;63427;49.654;6.596;2023-11-19T13:18:27;0;0;
74880;PMS5003;63427;49.654;6.596;2023-11-19T13:20:52;1;1;
74880;PMS5003;63427;49.654;6.596;2023-11-19T13:23:17;3;2;
74880;PMS5003;63427;49.654;6.596;2023-11-19T13:25:42;0;0;
74880;PMS5003;63427;49.654;6.596;2023-11-19T13:28:08;1;1;
74880;PMS5003;63427;49.654;6.596;2023-11-19T13:30:33;2;1;
74880;PMS5003;63427;49.654;6.596;2023-11-19T13:32:58;2;1;
74880;PMS5003;63427;49.654;6.596;2023-11-19T13:35:23;2;2;
74880;PMS5003;63427;49.654;6.596;2023-11-19T13:37:48;4;3;
74880;PMS5003;63427;49.654;6.596;2023-11-19T13:40:14;1;1;
74880;PMS5003;63427;49.654;6.596;2023-11-19T13:42:39;3;1;
74880;PMS5003;63427;49.654;6.596;2023-11-19T13:45:05;1;1;
74880;PMS5003;63427;49.654;6.596;2023-11-19T13:47:29;3;3;
74880;PMS5003;63427;49.654;6.596;2023-11-19T13:49:55;1;1;
74880;PMS5003;63427;49.654;6.596;2023-11-19T13:52:20;1;1;
74880;PMS5003;63427;49.654;6.596;2023-11-19T13:54:45;1;1;
74880;PMS5003;63427;49.654;6.596;2023-11-19T13:57:11;1;1;
74880;PMS5003;63427;49.654;6.596;2023-11-19T13:59:40;1;1;
74880;PMS5003;63427;49.654;6.596;2023-11-19T14:02:01;3;2;
74880;PMS5003;63427;49.654;6.596;2023-11-19T14:04:26;1;1;
74880;PMS5003;63427;49.654;6.596;2023-11-19T14:06:52;2;2;
74880;PMS5003;63427;49.654;6.596;2023-11-19T14:11:43;3;2;
74880;PMS5003;63427;49.654;6.596;2023-11-19T14:14:08;2;2;
74880;PMS5003;63427;49.654;6.596;2023-11-19T14:16:33;2;2;
74880;PMS5003;63427;49.654;6.596;2023-11-19T14:18:58;2;1;
74880;PMS5003;63427;49.654;6.596;2023-11-19T14:21:24;2;2;
74880;PMS5003;63427;49.654;6.596;2023-11-19T14:23:49;2;2;
74880;PMS5003;63427;49.654;6.596;2023-11-19T14:26:14;2;2;
74880;PMS5003;63427;49.654;6.596;2023-11-19T14:28:39;2;2;
74880;PMS5003;63427;49.654;6.596;2023-11-19T14:31:05;2;2;
74880;PMS5003;63427;49.654;6.596;2023-11-19T14:33:30;3;2;
74880;PMS5003;63427;49.654;6.596;2023-11-19T14:35:55;2;1;
74880;PMS5003;63427;49.654;6.596;2023-11-19T14:40:46;4;4;
74880;PMS5003;63427;49.654;6.596;2023-11-19T14:43:11;6;6;
74880;PMS5003;63427;49.654;6.596;2023-11-19T14:45:37;4;3;
74880;PMS5003;63427;49.654;6.596;2023-11-19T14:52:56;10;9;
74880;PMS5003;63427;49.654;6.596;2023-11-19T14:55:19;5;4;
74880;PMS5003;63427;49.654;6.596;2023-11-19T14:57:44;4;4;
74880;PMS5003;63427;49.654;6.596;2023-11-19T15:02:35;4;3;
74880;PMS5003;63427;49.654;6.596;2023-11-19T15:05:00;8;7;
74880;PMS5003;63427;49.654;6.596;2023-11-19T15:07:26;6;2;
74880;PMS5003;63427;49.654;6.596;2023-11-19T15:09:56;5;4;
74880;PMS5003;63427;49.654;6.596;2023-11-19T15:12:16;2;2;
74880;PMS5003;63427;49.654;6.596;2023-11-19T15:14:42;3;3;
74880;PMS5003;63427;49.654;6.596;2023-11-19T15:17:25;5;4;
74880;PMS5003;63427;49.654;6.596;2023-11-19T15:19:33;3;3;
74880;PMS5003;63427;49.654;6.596;2023-11-19T15:21:58;4;4;
74880;PMS5003;63427;49.654;6.596;2023-11-19T15:24:23;4;3;
74880;PMS5003;63427;49.654;6.596;2023-11-19T15:26:49;1;1;
74880;PMS5003;63427;49.654;6.596;2023-11-19T15:29:15;2;2;
74880;PMS5003;63427;49.654;6.596;2023-11-19T15:31:40;1;1;
74880;PMS5003;63427;49.654;6.596;2023-11-19T15:34:05;4;3;
74880;PMS5003;63427;49.654;6.596;2023-11-19T15:36:30;3;2;
74880;PMS5003;63427;49.654;6.596;2023-11-19T15:38:56;2;2;
74880;PMS5003;63427;49.654;6.596;2023-11-19T15:41:21;2;1;
74880;PMS5003;63427;49.654;6.596;2023-11-19T15:43:46;2;2;
74880;PMS5003;63427;49.654;6.596;2023-11-19T15:46:14;4;4;
74880;PMS5003;63427;49.654;6.596;2023-11-19T15:48:40;8;8;
74880;PMS5003;63427;49.654;6.596;2023-11-19T15:51:03;7;6;
74880;PMS5003;63427;49.654;6.596;2023-11-19T15:55:53;4;4;
74880;PMS5003;63427;49.654;6.596;2023-11-19T15:58:19;4;3;
74880;PMS5003;63427;49.654;6.596;2023-11-19T16:00:44;8;6;
74880;PMS5003;63427;49.654;6.596;2023-11-19T16:03:09;3;2;
74880;PMS5003;63427;49.654;6.596;2023-11-19T16:05:35;4;3;
74880;PMS5003;63427;49.654;6.596;2023-11-19T16:08:00;3;2;
74880;PMS5003;63427;49.654;6.596;2023-11-19T16:10:26;4;4;
74880;PMS5003;63427;49.654;6.596;2023-11-19T16:12:56;3;3;
74880;PMS5003;63427;49.654;6.596;2023-11-19T16:15:17;2;2;
74880;PMS5003;63427;49.654;6.596;2023-11-19T16:17:45;5;4;
74880;PMS5003;63427;49.654;6.596;2023-11-19T16:20:07;4;4;
74880;PMS5003;63427;49.654;6.596;2023-11-19T16:22:35;5;5;
74880;PMS5003;63427;49.654;6.596;2023-11-19T16:27:23;4;4;
74880;PMS5003;63427;49.654;6.596;2023-11-19T16:32:14;4;3;
74880;PMS5003;63427;49.654;6.596;2023-11-19T16:34:39;6;6;
74880;PMS5003;63427;49.654;6.596;2023-11-19T16:37:05;4;4;
74880;PMS5003;63427;49.654;6.596;2023-11-19T16:39:30;4;2;
74880;PMS5003;63427;49.654;6.596;2023-11-19T16:41:56;5;3;
74880;PMS5003;63427;49.654;6.596;2023-11-19T16:44:23;3;3;
74880;PMS5003;63427;49.654;6.596;2023-11-19T16:46:56;5;5;
74880;PMS5003;63427;49.654;6.596;2023-11-19T16:49:12;4;4;
74880;PMS5003;63427;49.654;6.596;2023-11-19T16:51:37;6;5;
74880;PMS5003;63427;49.654;6.596;2023-11-19T16:54:08;3;3;
74880;PMS5003;63427;49.654;6.596;2023-11-19T16:56:28;6;5;
74880;PMS5003;63427;49.654;6.596;2023-11-19T16:58:53;4;3;
74880;PMS5003;63427;49.654;6.596;2023-11-19T17:01:27;9;6;
74880;PMS5003;63427;49.654;6.596;2023-11-19T17:03:43;4;3;
74880;PMS5003;63427;49.654;6.596;2023-11-19T17:06:09;4;3;
74880;PMS5003;63427;49.654;6.596;2023-11-19T17:08:35;5;3;
74880;PMS5003;63427;49.654;6.596;2023-11-19T17:11:00;4;4;
74880;PMS5003;63427;49.654;6.596;2023-11-19T17:15:50;4;4;
74880;PMS5003;63427;49.654;6.596;2023-11-19T17:18:16;5;4;
74880;PMS5003;63427;49.654;6.596;2023-11-19T17:20:47;3;3;
74880;PMS5003;63427;49.654;6.596;2023-11-19T17:23:06;4;3;
74880;PMS5003;63427;49.654;6.596;2023-11-19T17:25:32;3;3;
74880;PMS5003;63427;49.654;6.596;2023-11-19T17:28:01;3;3;
74880;PMS5003;63427;49.654;6.596;2023-11-19T17:30:23;4;4;
74880;PMS5003;63427;49.654;6.596;2023-11-19T17:32:48;2;2;
74880;PMS5003;63427;49.654;6.596;2023-11-19T17:35:13;4;4;
74880;PMS5003;63427;49.654;6.596;2023-11-19T17:37:39;3;3;
74880;PMS5003;63427;49.654;6.596;2023-11-19T17:40:05;3;2;
74880;PMS5003;63427;49.654;6.596;2023-11-19T17:42:30;3;3;
74880;PMS5003;63427;49.654;6.596;2023-11-19T17:44:55;7;5;
74880;PMS5003;63427;49.654;6.596;2023-11-19T17:47:20;3;3;
74880;PMS5003;63427;49.654;6.596;2023-11-19T17:49:46;4;2;
74880;PMS5003;63427;49.654;6.596;2023-11-19T17:52:11;3;2;
74880;PMS5003;63427;49.654;6.596;2023-11-19T17:54:42;4;4;
74880;PMS5003;63427;49.654;6.596;2023-11-19T17:57:09;3;3;
74880;PMS5003;63427;49.654;6.596;2023-11-19T17:59:31;4;3;
74880;PMS5003;63427;49.654;6.596;2023-11-19T18:01:52;6;5;
74880;PMS5003;63427;49.654;6.596;2023-11-19T18:04:18;3;3;
74880;PMS5003;63427;49.654;6.596;2023-11-19T18:06:43;3;3;
74880;PMS5003;63427;49.654;6.596;2023-11-19T18:09:09;3;3;
74880;PMS5003;63427;49.654;6.596;2023-11-19T18:11:35;5;5;
74880;PMS5003;63427;49.654;6.596;2023-11-19T18:16:25;7;5;
74880;PMS5003;63427;49.654;6.596;2023-11-19T18:18:50;4;4;
74880;PMS5003;63427;49.654;6.596;2023-11-19T18:21:16;6;4;
74880;PMS5003;63427;49.654;6.596;2023-11-19T18:23:41;4;3;
74880;PMS5003;63427;49.654;6.596;2023-11-19T18:26:06;5;4;
74880;PMS5003;63427;49.654;6.596;2023-11-19T18:28:32;6;5;
74880;PMS5003;63427;49.654;6.596;2023-11-19T18:30:57;3;3;
74880;PMS5003;63427;49.654;6.596;2023-11-19T18:35:48;5;4;
74880;PMS5003;63427;49.654;6.596;2023-11-19T18:38:13;5;5;
74880;PMS5003;63427;49.654;6.596;2023-11-19T18:40:39;3;3;
74880;PMS5003;63427;49.654;6.596;2023-11-19T18:43:04;8;6;
74880;PMS5003;63427;49.654;6.596;2023-11-19T18:45:30;5;5;
74880;PMS5003;63427;49.654;6.596;2023-11-19T18:47:55;5;5;
74880;PMS5003;63427;49.654;6.596;2023-11-19T18:50:20;4;4;
74880;PMS5003;63427;49.654;6.596;2023-11-19T18:52:46;6;4;
74880;PMS5003;63427;49.654;6.596;2023-11-19T18:55:12;6;5;
74880;PMS5003;63427;49.654;6.596;2023-11-19T18:57:37;6;5;
74880;PMS5003;63427;49.654;6.596;2023-11-19T19:00:02;6;5;
74880;PMS5003;63427;49.654;6.596;2023-11-19T19:05:01;5;4;
74880;PMS5003;63427;49.654;6.596;2023-11-19T19:07:18;8;5;
74880;PMS5003;63427;49.654;6.596;2023-11-19T19:09:43;6;6;
74880;PMS5003;63427;49.654;6.596;2023-11-19T19:12:08;4;4;
74880;PMS5003;63427;49.654;6.596;2023-11-19T19:14:34;5;5;
74880;PMS5003;63427;49.654;6.596;2023-11-19T19:17:01;7;5;
74880;PMS5003;63427;49.654;6.596;2023-11-19T19:19:24;6;5;
74880;PMS5003;63427;49.654;6.596;2023-11-19T19:21:50;6;6;
74880;PMS5003;63427;49.654;6.596;2023-11-19T19:26:41;7;6;
74880;PMS5003;63427;49.654;6.596;2023-11-19T19:29:06;6;5;
74880;PMS5003;63427;49.654;6.596;2023-11-19T19:31:33;5;3;
74880;PMS5003;63427;49.654;6.596;2023-11-19T19:33:56;4;3;
74880;PMS5003;63427;49.654;6.596;2023-11-19T19:36:22;6;5;
74880;PMS5003;63427;49.654;6.596;2023-11-19T19:38:47;6;5;
74880;PMS5003;63427;49.654;6.596;2023-11-19T19:41:12;4;3;
74880;PMS5003;63427;49.654;6.596;2023-11-19T19:43:38;4;4;
74880;PMS5003;63427;49.654;6.596;2023-11-19T19:46:04;5;4;
74880;PMS5003;63427;49.654;6.596;2023-11-19T19:48:28;5;4;
74880;PMS5003;63427;49.654;6.596;2023-11-19T19:51:01;4;4;
74880;PMS5003;63427;49.654;6.596;2023-11-19T19:53:19;4;4;
74880;PMS5003;63427;49.654;6.596;2023-11-19T19:55:44;3;3;
74880;PMS5003;63427;49.654;6.596;2023-11-19T19:58:09;4;3;
74880;PMS5003;63427;49.654;6.596;2023-11-19T20:00:34;6;6;
74880;PMS5003;63427;49.654;6.596;2023-11-19T20:03:00;3;3;
74880;PMS5003;63427;49.654;6.596;2023-11-19T20:05:25;5;5;
74880;PMS5003;63427;49.654;6.596;2023-11-19T20:07:50;4;4;
74880;PMS5003;63427;49.654;6.596;2023-11-19T20:10:21;8;6;
74880;PMS5003;63427;49.654;6.596;2023-11-19T20:12:41;5;5;
74880;PMS5003;63427;49.654;6.596;2023-11-19T20:15:07;5;4;
74880;PMS5003;63427;49.654;6.596;2023-11-19T20:17:32;5;5;
74880;PMS5003;63427;49.654;6.596;2023-11-19T20:19:57;6;4;
74880;PMS5003;63427;49.654;6.596;2023-11-19T20:22:23;7;5;
74880;PMS5003;63427;49.654;6.596;2023-11-19T20:24:48;5;4;
74880;PMS5003;63427;49.654;6.596;2023-11-19T20:27:13;6;5;
74880;PMS5003;63427;49.654;6.596;2023-11-19T20:29:39;3;3;
74880;PMS5003;63427;49.654;6.596;2023-11-19T20:32:05;8;6;
74880;PMS5003;63427;49.654;6.596;2023-11-19T20:34:30;3;3;
74880;PMS5003;63427;49.654;6.596;2023-11-19T20:36:55;4;3;
74880;PMS5003;63427;49.654;6.596;2023-11-19T20:39:20;5;4;
74880;PMS5003;63427;49.654;6.596;2023-11-19T20:41:45;4;3;
74880;PMS5003;63427;49.654;6.596;2023-11-19T20:49:01;8;7;
74880;PMS5003;63427;49.654;6.596;2023-11-19T20:51:27;6;6;
74880;PMS5003;63427;49.654;6.596;2023-11-19T20:53:52;5;4;
74880;PMS5003;63427;49.654;6.596;2023-11-19T20:58:42;5;5;
74880;PMS5003;63427;49.654;6.596;2023-11-19T21:01:07;5;4;
74880;PMS5003;63427;49.654;6.596;2023-11-19T21:03:32;7;6;
74880;PMS5003;63427;49.654;6.596;2023-11-19T21:05:58;7;7;
74880;PMS5003;63427;49.654;6.596;2023-11-19T21:08:23;5;5;
74880;PMS5003;63427;49.654;6.596;2023-11-19T21:10:49;5;5;
74880;PMS5003;63427;49.654;6.596;2023-11-19T21:13:14;5;5;
74880;PMS5003;63427;49.654;6.596;2023-11-19T21:15:39;5;4;
74880;PMS5003;63427;49.654;6.596;2023-11-19T21:18:05;6;4;
74880;PMS5003;63427;49.654;6.596;2023-11-19T21:20:30;5;5;
74880;PMS5003;63427;49.654;6.596;2023-11-19T21:22:56;4;4;
74880;PMS5003;63427;49.654;6.596;2023-11-19T21:25:21;3;3;
74880;PMS5003;63427;49.654;6.596;2023-11-19T21:27:46;6;5;
74880;PMS5003;63427;49.654;6.596;2023-11-19T21:30:12;5;4;
74880;PMS5003;63427;49.654;6.596;2023-11-19T21:32:38;6;6;
74880;PMS5003;63427;49.654;6.596;2023-11-19T21:35:03;4;3;
74880;PMS5003;63427;49.654;6.596;2023-11-19T21:37:28;7;6;
74880;PMS5003;63427;49.654;6.596;2023-11-19T21:39:53;4;4;
74880;PMS5003;63427;49.654;6.596;2023-11-19T21:42:19;6;5;
74880;PMS5003;63427;49.654;6.596;2023-11-19T21:44:44;3;3;
74880;PMS5003;63427;49.654;6.596;2023-11-19T21:47:10;1;1;
74880;PMS5003;63427;49.654;6.596;2023-11-19T21:49:35;5;5;
74880;PMS5003;63427;49.654;6.596;2023-11-19T21:52:00;3;3;
74880;PMS5003;63427;49.654;6.596;2023-11-19T21:54:25;5;5;
74880;PMS5003;63427;49.654;6.596;2023-11-19T21:56:51;1;1;
74880;PMS5003;63427;49.654;6.596;2023-11-19T21:59:16;7;4;
74880;PMS5003;63427;49.654;6.596;2023-11-19T22:01:41;6;6;
74880;PMS5003;63427;49.654;6.596;2023-11-19T22:04:07;3;2;
74880;PMS5003;63427;49.654;6.596;2023-11-19T22:06:32;5;4;
74880;PMS5003;63427;49.654;6.596;2023-11-19T22:08:57;5;5;
74880;PMS5003;63427;49.654;6.596;2023-11-19T22:11:23;3;3;
74880;PMS5003;63427;49.654;6.596;2023-11-19T22:13:48;4;3;
74880;PMS5003;63427;49.654;6.596;2023-11-19T22:16:13;8;8;